createdAt,value
2023-09-24T00:01:07.360Z,12.37
2023-09-24T00:03:36.867Z,12.34
2023-09-24T00:06:06.518Z,12.32
2023-09-24T00:08:34.528Z,12.31
2023-09-24T00:11:03.850Z,12.30
2023-09-24T00:13:35.056Z,12.24
2023-09-24T00:16:07.182Z,12.22
2023-09-24T00:18:37.039Z,12.13
2023-09-24T00:21:05.460Z,12.04
2023-09-24T00:23:33.386Z,12.01
2023-09-24T00:26:01.301Z,12.03
2023-09-24T00:28:29.776Z,11.85
2023-09-24T00:30:59.424Z,11.74
2023-09-24T00:33:27.452Z,11.73
2023-09-24T00:35:59.467Z,11.65
2023-09-24T00:38:28.616Z,11.53
2023-09-24T00:40:56.557Z,11.57
2023-09-24T00:43:29.717Z,11.45
2023-09-24T00:45:59.164Z,11.50
2023-09-24T00:48:31.754Z,11.57
2023-09-24T00:51:03.249Z,11.55
2023-09-24T00:53:32.564Z,11.60
2023-09-24T00:56:01.226Z,11.61
2023-09-24T00:58:32.038Z,11.59
2023-09-24T01:01:00.226Z,11.46
2023-09-24T01:03:29.325Z,11.45
2023-09-24T01:05:57.699Z,11.46
2023-09-24T01:08:32.471Z,11.50
2023-09-24T01:11:01.071Z,11.49
2023-09-24T01:13:39.148Z,11.42
2023-09-24T01:16:07.986Z,11.39
2023-09-24T01:18:37.995Z,11.27
2023-09-24T01:21:08.767Z,11.22
2023-09-24T01:23:39.886Z,11.19
2023-09-24T01:26:08.992Z,11.18
2023-09-24T01:28:36.865Z,11.15
2023-09-24T01:31:04.957Z,11.15
2023-09-24T01:33:33.672Z,11.14
2023-09-24T01:36:01.796Z,11.12
2023-09-24T01:38:29.738Z,11.06
2023-09-24T01:40:59.556Z,10.96
2023-09-24T01:43:27.970Z,10.91
2023-09-24T01:45:55.823Z,10.84
2023-09-24T01:48:25.000Z,10.78
2023-09-24T01:50:54.026Z,10.79
2023-09-24T01:53:23.844Z,10.73
2023-09-24T01:55:53.030Z,10.67
2023-09-24T01:58:22.361Z,10.67
2023-09-24T02:00:50.651Z,10.74
2023-09-24T02:03:18.685Z,10.63
2023-09-24T02:05:47.990Z,10.67
2023-09-24T02:08:16.232Z,10.60
2023-09-24T02:10:45.066Z,10.68
2023-09-24T02:13:14.448Z,10.59
2023-09-24T02:15:45.620Z,10.58
2023-09-24T02:18:14.115Z,10.57
2023-09-24T02:20:43.569Z,10.52
2023-09-24T02:23:12.108Z,10.52
2023-09-24T02:25:39.992Z,10.53
2023-09-24T02:28:08.722Z,10.48
2023-09-24T02:30:38.188Z,10.50
2023-09-24T02:33:07.998Z,10.45
2023-09-24T02:35:36.941Z,10.46
2023-09-24T02:38:08.326Z,10.44
2023-09-24T02:40:36.818Z,10.44
2023-09-24T02:43:05.496Z,10.37
2023-09-24T02:45:34.308Z,10.37
2023-09-24T02:48:04.738Z,10.26
2023-09-24T02:50:34.239Z,10.34
2023-09-24T02:53:05.928Z,10.29
2023-09-24T02:55:34.867Z,10.22
2023-09-24T02:58:06.656Z,10.24
2023-09-24T03:00:37.555Z,10.24
2023-09-24T03:03:07.579Z,10.17
2023-09-24T03:05:37.553Z,10.09
2023-09-24T03:08:07.360Z,10.05
2023-09-24T03:10:36.802Z,10.11
2023-09-24T03:13:06.095Z,10.05
2023-09-24T03:15:34.496Z,10.06
2023-09-24T03:18:03.296Z,9.99
2023-09-24T03:20:31.762Z,10.00
2023-09-24T03:23:04.545Z,9.90
2023-09-24T03:25:33.532Z,9.88
2023-09-24T03:28:02.988Z,9.89
2023-09-24T03:30:32.030Z,9.86
2023-09-24T03:33:01.576Z,9.82
2023-09-24T03:35:29.949Z,9.77
2023-09-24T03:37:58.796Z,9.73
2023-09-24T03:40:30.260Z,9.73
2023-09-24T03:42:58.632Z,9.75
2023-09-24T03:45:27.502Z,9.74
2023-09-24T03:47:58.341Z,9.77
2023-09-24T03:51:08.275Z,9.78
2023-09-24T03:53:36.243Z,9.63
2023-09-24T03:56:08.503Z,9.61
2023-09-24T03:58:36.546Z,9.52
2023-09-24T04:01:11.117Z,9.48
2023-09-24T04:03:39.562Z,9.57
2023-09-24T04:06:12.998Z,9.50
2023-09-24T04:08:41.475Z,9.39
2023-09-24T04:11:12.997Z,9.29
2023-09-24T04:13:41.254Z,9.24
2023-09-24T04:16:11.636Z,9.28
2023-09-24T04:18:39.902Z,9.24
2023-09-24T04:21:16.549Z,9.18
2023-09-24T04:23:44.738Z,9.08
2023-09-24T04:26:22.801Z,9.09
2023-09-24T04:28:51.918Z,9.02
2023-09-24T04:31:19.822Z,8.92
2023-09-24T04:33:49.482Z,8.88
2023-09-24T04:36:19.233Z,8.91
2023-09-24T04:38:48.248Z,8.89
2023-09-24T04:41:17.390Z,8.80
2023-09-24T04:43:46.991Z,8.79
2023-09-24T04:46:15.236Z,8.68
2023-09-24T04:48:43.411Z,8.70
2023-09-24T04:51:12.134Z,8.75
2023-09-24T04:53:40.865Z,8.61
2023-09-24T04:56:09.800Z,8.60
2023-09-24T04:58:37.698Z,8.56
2023-09-24T05:01:09.861Z,8.55
2023-09-24T05:03:43.980Z,8.51
2023-09-24T05:06:12.489Z,8.48
2023-09-24T05:08:40.394Z,8.52
2023-09-24T05:11:11.599Z,8.48
2023-09-24T05:13:39.526Z,8.51
2023-09-24T05:16:09.848Z,8.47
2023-09-24T05:18:38.656Z,8.51
2023-09-24T05:21:15.575Z,8.54
2023-09-24T05:23:43.614Z,8.52
2023-09-24T05:26:13.246Z,8.48
2023-09-24T05:28:41.495Z,8.55
2023-09-24T05:31:10.632Z,8.54
2023-09-24T05:33:39.355Z,8.62
2023-09-24T05:36:08.994Z,8.60
2023-09-24T05:38:37.060Z,8.56
2023-09-24T05:41:06.591Z,8.59
2023-09-24T05:43:34.548Z,8.61
2023-09-24T05:46:03.366Z,8.64
2023-09-24T05:48:32.662Z,8.64
2023-09-24T05:51:04.971Z,8.67
2023-09-24T05:53:33.663Z,8.80
2023-09-24T05:56:04.369Z,8.82
2023-09-24T05:58:32.309Z,8.83
2023-09-24T06:01:00.963Z,8.87
2023-09-24T06:03:28.966Z,8.94
2023-09-24T06:05:58.320Z,9.03
2023-09-24T06:08:26.218Z,8.99
2023-09-24T06:10:54.208Z,9.20
2023-09-24T06:13:22.213Z,9.27
2023-09-24T06:15:50.113Z,9.47
2023-09-24T06:18:18.065Z,9.62
2023-09-24T06:20:46.019Z,9.93
2023-09-24T06:23:15.227Z,10.14
2023-09-24T06:25:43.355Z,10.30
2023-09-24T06:28:11.613Z,10.39
2023-09-24T06:30:39.903Z,10.68
2023-09-24T06:33:08.635Z,11.22
2023-09-24T06:35:39.005Z,11.32
2023-09-24T06:38:06.910Z,11.80
2023-09-24T06:40:40.133Z,12.01
2023-09-24T06:43:08.281Z,11.66
2023-09-24T06:45:37.071Z,11.99
2023-09-24T06:48:05.684Z,11.92
2023-09-24T06:50:35.682Z,11.97
2023-09-24T06:53:03.570Z,12.05
2023-09-24T06:55:31.448Z,11.98
2023-09-24T06:58:00.809Z,12.37
2023-09-24T07:00:28.813Z,12.58
2023-09-24T07:02:56.718Z,13.06
2023-09-24T07:05:24.639Z,12.86
2023-09-24T07:07:52.909Z,12.88
2023-09-24T07:10:23.396Z,13.52
2023-09-24T07:12:51.381Z,13.34
2023-09-24T07:15:20.963Z,13.69
2023-09-24T07:17:48.953Z,13.97
2023-09-24T07:20:17.156Z,13.77
2023-09-24T07:22:45.075Z,14.60
2023-09-24T07:25:12.970Z,14.68
2023-09-24T07:27:42.151Z,14.67
2023-09-24T07:30:11.162Z,15.22
2023-09-24T07:32:40.774Z,15.54
2023-09-24T07:35:10.443Z,15.75
2023-09-24T07:37:40.173Z,15.59
2023-09-24T07:40:10.138Z,15.50
2023-09-24T07:42:39.649Z,15.62
2023-09-24T07:45:13.033Z,16.36
2023-09-24T07:47:42.384Z,15.98
2023-09-24T07:50:11.782Z,16.00
2023-09-24T07:52:39.635Z,16.71
2023-09-24T07:55:08.049Z,16.71
2023-09-24T07:57:35.839Z,17.09
2023-09-24T08:00:04.606Z,17.07
2023-09-24T08:02:39.956Z,17.13
2023-09-24T08:05:11.046Z,17.26
2023-09-24T08:07:41.096Z,17.67
2023-09-24T08:10:11.088Z,17.00
2023-09-24T08:12:38.898Z,17.42
2023-09-24T08:15:07.896Z,16.94
2023-09-24T08:17:36.069Z,16.64
2023-09-24T08:20:04.156Z,16.91
2023-09-24T08:22:33.544Z,17.37
2023-09-24T08:25:01.597Z,17.62
2023-09-24T08:27:29.454Z,17.61
2023-09-24T08:29:57.573Z,18.40
2023-09-24T08:32:25.945Z,18.15
2023-09-24T08:34:53.827Z,17.87
2023-09-24T08:37:21.802Z,17.97
2023-09-24T08:39:51.122Z,17.98
2023-09-24T08:42:21.659Z,18.30
2023-09-24T08:44:59.358Z,18.15
2023-09-24T08:47:29.002Z,18.55
2023-09-24T08:49:58.493Z,18.18
2023-09-24T08:52:27.156Z,19.42
2023-09-24T08:54:56.712Z,19.02
2023-09-24T08:57:24.614Z,19.36
2023-09-24T08:59:53.109Z,19.37
2023-09-24T09:02:21.168Z,19.73
2023-09-24T09:04:50.928Z,19.78
2023-09-24T09:07:19.056Z,20.00
2023-09-24T09:09:55.824Z,19.84
2023-09-24T09:12:27.103Z,20.18
2023-09-24T09:14:56.434Z,21.38
2023-09-24T09:17:25.306Z,20.81
2023-09-24T09:19:55.405Z,20.47
2023-09-24T09:22:24.703Z,20.73
2023-09-24T09:25:04.957Z,20.64
2023-09-24T09:27:34.925Z,20.59
2023-09-24T09:30:14.401Z,21.48
2023-09-24T09:32:42.406Z,22.14
2023-09-24T09:35:10.588Z,21.38
2023-09-24T09:37:39.461Z,22.11
2023-09-24T09:40:08.328Z,22.50
2023-09-24T09:42:38.547Z,23.34
2023-09-24T09:45:08.229Z,22.45
2023-09-24T09:47:45.494Z,22.10
2023-09-24T09:50:18.327Z,21.86
2023-09-24T09:52:47.276Z,22.47
2023-09-24T09:55:15.464Z,22.34
2023-09-24T09:57:45.217Z,22.94
2023-09-24T10:00:15.998Z,23.69
2023-09-24T10:02:48.859Z,24.57
2023-09-24T10:05:19.491Z,24.09
2023-09-24T10:07:48.291Z,24.67
2023-09-24T10:10:43.496Z,24.19
2023-09-24T10:13:45.659Z,24.00
2023-09-24T10:16:38.486Z,24.80
2023-09-24T10:19:11.141Z,23.36
2023-09-24T10:21:40.714Z,24.06
2023-09-24T10:24:48.400Z,24.31
2023-09-24T10:27:16.844Z,24.82
2023-09-24T10:30:05.164Z,26.11
2023-09-24T10:32:46.781Z,25.95
2023-09-24T10:35:14.922Z,24.49
2023-09-24T10:38:06.070Z,25.56
2023-09-24T10:40:35.235Z,23.44
2023-09-24T10:43:27.249Z,23.23
2023-09-24T10:46:27.532Z,24.50
2023-09-24T10:48:58.202Z,25.44
2023-09-24T10:51:26.508Z,24.52
2023-09-24T10:54:12.759Z,24.15
2023-09-24T10:56:40.977Z,23.95
2023-09-24T10:59:08.956Z,24.69
2023-09-24T11:01:36.801Z,23.98
2023-09-24T11:04:06.248Z,25.38
2023-09-24T11:06:34.246Z,24.34
2023-09-24T11:09:18.708Z,25.12
2023-09-24T11:11:49.513Z,23.81
2023-09-24T11:14:23.814Z,24.63
2023-09-24T11:16:52.438Z,25.39
2023-09-24T11:19:45.447Z,25.21
2023-09-24T11:22:17.874Z,25.01
2023-09-24T11:24:45.689Z,24.95
2023-09-24T11:27:13.798Z,24.40
2023-09-24T11:29:41.985Z,24.87
2023-09-24T11:32:26.107Z,24.27
2023-09-24T11:35:09.001Z,23.92
2023-09-24T11:37:51.367Z,24.34
2023-09-24T11:40:23.832Z,24.52
2023-09-24T11:42:53.086Z,24.21
2023-09-24T11:45:39.766Z,22.88
2023-09-24T11:48:08.556Z,22.79
2023-09-24T11:50:39.700Z,23.77
2023-09-24T11:53:08.290Z,24.03
2023-09-24T11:55:37.161Z,23.53
2023-09-24T11:58:06.749Z,23.34
2023-09-24T12:00:35.618Z,22.92
2023-09-24T12:03:05.227Z,22.43
2023-09-24T12:05:34.526Z,23.24
2023-09-24T12:08:05.679Z,22.37
2023-09-24T12:10:34.878Z,23.01
2023-09-24T12:13:05.336Z,23.02
2023-09-24T12:15:34.570Z,22.67
2023-09-24T12:18:05.533Z,22.98
2023-09-24T12:20:34.579Z,22.95
2023-09-24T12:23:05.663Z,22.62
2023-09-24T12:25:38.123Z,22.73
2023-09-24T12:28:08.144Z,23.69
2023-09-24T12:30:36.425Z,23.99
2023-09-24T12:33:04.831Z,24.56
2023-09-24T12:35:32.922Z,25.01
2023-09-24T12:38:00.955Z,23.75
2023-09-24T12:40:30.754Z,24.46
2023-09-24T12:42:59.036Z,23.71
2023-09-24T12:45:26.936Z,23.45
2023-09-24T12:47:54.959Z,22.76
2023-09-24T12:50:22.829Z,22.98
2023-09-24T12:52:50.683Z,22.49
2023-09-24T12:55:18.515Z,23.15
2023-09-24T12:57:47.838Z,23.35
2023-09-24T13:00:17.851Z,23.35
2023-09-24T13:02:47.801Z,24.03
2023-09-24T13:05:17.893Z,23.43
2023-09-24T13:07:48.092Z,23.85
2023-09-24T13:10:17.786Z,23.61
2023-09-24T13:12:47.044Z,22.85
2023-09-24T13:15:15.067Z,22.79
2023-09-24T13:17:43.420Z,23.31
2023-09-24T13:20:12.323Z,23.41
2023-09-24T13:22:40.421Z,23.12
2023-09-24T13:25:09.987Z,23.28
2023-09-24T13:27:38.999Z,23.51
2023-09-24T13:30:09.710Z,23.81
2023-09-24T13:32:38.096Z,23.41
2023-09-24T13:35:08.772Z,23.70
2023-09-24T13:37:38.783Z,23.29
2023-09-24T13:40:22.859Z,23.80
2023-09-24T13:43:00.201Z,23.00
2023-09-24T13:45:29.531Z,23.53
2023-09-24T13:47:57.797Z,22.39
2023-09-24T13:50:25.866Z,22.26
2023-09-24T13:52:53.732Z,22.57
2023-09-24T13:55:21.697Z,23.08
2023-09-24T13:57:49.532Z,23.20
2023-09-24T14:00:18.064Z,22.95
2023-09-24T14:02:47.404Z,22.78
2023-09-24T14:05:15.425Z,22.44
2023-09-24T14:07:43.184Z,22.72
2023-09-24T14:10:28.910Z,22.26
2023-09-24T14:12:56.854Z,22.50
2023-09-24T14:15:24.698Z,22.31
2023-09-24T14:18:11.501Z,22.15
2023-09-24T14:20:41.677Z,22.28
2023-09-24T14:23:09.556Z,22.55
2023-09-24T14:25:39.256Z,22.15
2023-09-24T14:28:07.414Z,22.05
2023-09-24T14:30:38.425Z,21.58
2023-09-24T14:33:10.095Z,21.78
2023-09-24T14:35:37.950Z,22.04
2023-09-24T14:38:06.137Z,21.47
2023-09-24T14:40:36.324Z,21.59
2023-09-24T14:43:04.740Z,21.47
2023-09-24T14:45:32.534Z,21.52
2023-09-24T14:48:01.123Z,21.23
2023-09-24T14:50:30.477Z,21.53
2023-09-24T14:52:58.296Z,21.47
2023-09-24T14:55:26.277Z,21.33
2023-09-24T14:57:55.744Z,21.31
2023-09-24T15:00:25.906Z,21.33
2023-09-24T15:02:56.766Z,21.12
2023-09-24T15:05:25.209Z,21.08
2023-09-24T15:07:54.593Z,20.79
2023-09-24T15:10:23.572Z,20.90
2023-09-24T15:12:53.337Z,20.74
2023-09-24T15:15:21.230Z,20.67
2023-09-24T15:17:49.109Z,20.52
2023-09-24T15:20:17.124Z,20.64
2023-09-24T15:22:44.974Z,20.57
2023-09-24T15:25:14.191Z,20.50
2023-09-24T15:27:42.057Z,20.52
2023-09-24T15:30:10.686Z,20.43
2023-09-24T15:32:38.556Z,20.28
2023-09-24T15:35:07.340Z,20.31
2023-09-24T15:37:35.236Z,20.30
2023-09-24T15:40:03.833Z,20.16
2023-09-24T15:42:33.070Z,20.12
2023-09-24T15:45:01.045Z,20.28
2023-09-24T15:47:29.154Z,20.22
2023-09-24T15:49:58.284Z,20.08
2023-09-24T15:52:26.235Z,20.15
2023-09-24T15:54:54.146Z,20.11
2023-09-24T15:57:23.914Z,20.05
2023-09-24T15:59:53.265Z,20.12
2023-09-24T16:02:21.152Z,20.07
2023-09-24T16:04:49.195Z,19.99
2023-09-24T16:07:17.036Z,20.08
2023-09-24T16:09:44.888Z,19.96
2023-09-24T16:12:12.875Z,19.89
2023-09-24T16:14:40.890Z,20.02
2023-09-24T16:17:10.279Z,19.96
2023-09-24T16:19:38.301Z,19.80
2023-09-24T16:22:06.614Z,19.76
2023-09-24T16:24:34.882Z,19.85
2023-09-24T16:27:03.159Z,19.87
2023-09-24T16:29:31.452Z,19.70
2023-09-24T16:31:59.435Z,19.64
2023-09-24T16:34:29.698Z,19.58
2023-09-24T16:36:57.734Z,19.57
2023-09-24T16:39:25.733Z,19.57
2023-09-24T16:41:53.656Z,19.41
2023-09-24T16:44:21.641Z,19.40
2023-09-24T16:46:49.789Z,19.49
2023-09-24T16:49:18.377Z,19.40
2023-09-24T16:51:48.590Z,19.37
2023-09-24T16:54:18.467Z,19.29
2023-09-24T16:56:46.521Z,19.24
2023-09-24T16:59:14.369Z,19.23
2023-09-24T17:01:42.303Z,19.11
2023-09-24T17:04:10.752Z,19.13
2023-09-24T17:06:38.883Z,18.98
2023-09-24T17:09:10.483Z,18.93
2023-09-24T17:11:38.514Z,18.95
2023-09-24T17:14:07.842Z,18.86
2023-09-24T17:16:35.750Z,18.85
2023-09-24T17:19:03.850Z,18.80
2023-09-24T17:21:32.030Z,18.66
2023-09-24T17:24:00.079Z,18.57
2023-09-24T17:26:29.601Z,18.44
2023-09-24T17:28:57.584Z,18.38
2023-09-24T17:31:28.704Z,18.31
2023-09-24T17:33:57.615Z,18.28
2023-09-24T17:36:25.629Z,18.20
2023-09-24T17:38:55.025Z,18.11
2023-09-24T17:41:24.404Z,18.12
2023-09-24T17:43:53.787Z,18.07
2023-09-24T17:46:25.091Z,18.01
2023-09-24T17:48:53.297Z,17.91
2023-09-24T17:51:21.119Z,17.77
2023-09-24T17:53:49.130Z,17.79
2023-09-24T17:56:18.002Z,17.79
2023-09-24T17:58:45.938Z,17.73
2023-09-24T18:01:16.779Z,17.66
2023-09-24T18:03:47.050Z,17.64
2023-09-24T18:06:16.905Z,17.37
2023-09-24T18:08:45.902Z,17.28
2023-09-24T18:11:14.181Z,17.19
2023-09-24T18:13:42.028Z,17.10
2023-09-24T18:16:10.158Z,16.97
2023-09-24T18:18:40.253Z,16.90
2023-09-24T18:21:08.912Z,16.88
2023-09-24T18:23:37.507Z,16.85
2023-09-24T18:26:05.823Z,16.67
2023-09-24T18:28:33.851Z,16.65
2023-09-24T18:31:02.010Z,16.55
2023-09-24T18:33:30.462Z,16.46
2023-09-24T18:36:00.994Z,16.49
2023-09-24T18:38:29.543Z,16.35
2023-09-24T18:40:57.946Z,16.24
2023-09-24T18:43:26.381Z,16.31
2023-09-24T18:46:01.296Z,16.32
2023-09-24T18:48:29.921Z,16.25
2023-09-24T18:50:58.666Z,16.29
2023-09-24T18:53:28.290Z,16.13
2023-09-24T18:56:03.519Z,15.89
2023-09-24T18:58:33.039Z,15.90
2023-09-24T19:01:01.048Z,15.80
2023-09-24T19:03:29.107Z,15.82
2023-09-24T19:05:58.505Z,15.65
2023-09-24T19:08:27.923Z,15.66
2023-09-24T19:10:55.992Z,15.56
2023-09-24T19:13:29.935Z,15.51
2023-09-24T19:16:05.318Z,15.43
2023-09-24T19:18:34.152Z,15.36
2023-09-24T19:21:02.668Z,15.28
2023-09-24T19:23:33.531Z,15.27
2023-09-24T19:26:11.774Z,15.18
2023-09-24T19:28:40.016Z,15.18
2023-09-24T19:31:09.178Z,15.06
2023-09-24T19:33:38.467Z,14.98
2023-09-24T19:36:07.799Z,14.96
2023-09-24T19:38:37.814Z,14.94
2023-09-24T19:41:07.045Z,15.02
2023-09-24T19:43:35.225Z,14.90
2023-09-24T19:46:03.253Z,14.96
2023-09-24T19:48:32.529Z,14.96
2023-09-24T19:51:00.857Z,14.97
2023-09-24T19:53:28.779Z,14.95
2023-09-24T19:55:58.022Z,14.96
2023-09-24T19:58:29.320Z,14.99
2023-09-24T20:01:00.522Z,14.94
2023-09-24T20:03:29.007Z,14.84
2023-09-24T20:05:57.592Z,14.85
2023-09-24T20:08:27.346Z,14.75
2023-09-24T20:10:55.464Z,14.65
2023-09-24T20:13:25.001Z,14.54
2023-09-24T20:15:54.124Z,14.67
2023-09-24T20:18:22.122Z,14.50
2023-09-24T20:20:50.058Z,14.45
2023-09-24T20:23:20.455Z,14.44
2023-09-24T20:25:54.926Z,14.46
2023-09-24T20:28:33.767Z,14.35
2023-09-24T20:31:15.294Z,14.37
2023-09-24T20:34:00.061Z,14.31
2023-09-24T20:36:31.803Z,14.13
2023-09-24T20:39:04.484Z,14.09
2023-09-24T20:41:36.275Z,14.05
2023-09-24T20:44:06.583Z,14.01
2023-09-24T20:46:37.492Z,14.06
2023-09-24T20:49:06.344Z,13.94
2023-09-24T20:51:34.522Z,13.96
2023-09-24T20:54:02.728Z,13.90
2023-09-24T20:56:32.395Z,13.82
2023-09-24T20:59:03.813Z,13.80
2023-09-24T21:01:33.376Z,13.78
2023-09-24T21:04:02.313Z,13.72
2023-09-24T21:06:30.226Z,13.66
2023-09-24T21:09:01.152Z,13.65
2023-09-24T21:11:29.136Z,13.59
2023-09-24T21:13:56.969Z,13.58
2023-09-24T21:16:25.384Z,13.52
2023-09-24T21:18:57.019Z,13.46
2023-09-24T21:21:25.079Z,13.45
2023-09-24T21:23:52.927Z,13.38
2023-09-24T21:26:22.084Z,13.34
2023-09-24T21:28:50.658Z,13.23
2023-09-24T21:31:18.642Z,13.25
2023-09-24T21:33:47.064Z,13.14
2023-09-24T21:36:16.684Z,13.14
2023-09-24T21:38:44.674Z,13.15
2023-09-24T21:41:12.567Z,13.14
2023-09-24T21:43:40.424Z,13.21
2023-09-24T21:46:10.614Z,13.17
2023-09-24T21:48:38.493Z,13.14
2023-09-24T21:51:06.923Z,13.12
2023-09-24T21:53:36.181Z,13.14
2023-09-24T21:56:04.095Z,13.14
2023-09-24T21:58:32.082Z,13.11
2023-09-24T22:01:00.112Z,13.02
2023-09-24T22:03:28.591Z,13.00
2023-09-24T22:05:57.328Z,12.97
2023-09-24T22:08:25.840Z,12.90
2023-09-24T22:10:55.178Z,12.93
2023-09-24T22:13:23.311Z,12.94
2023-09-24T22:15:51.276Z,12.95
2023-09-24T22:18:19.196Z,12.97
2023-09-24T22:20:47.434Z,13.01
2023-09-24T22:23:15.298Z,12.89
2023-09-24T22:25:43.261Z,12.88
2023-09-24T22:28:12.674Z,12.83
2023-09-24T22:30:40.750Z,12.85
2023-09-24T22:33:09.686Z,12.83
2023-09-24T22:35:37.790Z,12.78
2023-09-24T22:38:06.465Z,12.70
2023-09-24T22:40:34.376Z,12.72
2023-09-24T22:43:15.631Z,12.67
2023-09-24T22:45:50.278Z,12.68
2023-09-24T22:48:18.707Z,12.68
2023-09-24T22:50:51.610Z,12.65
2023-09-24T22:53:19.551Z,12.61
2023-09-24T22:55:47.871Z,12.55
2023-09-24T22:58:15.931Z,12.53
2023-09-24T23:00:43.967Z,12.50
2023-09-24T23:03:13.478Z,12.49
2023-09-24T23:05:41.844Z,12.49
2023-09-24T23:08:09.729Z,12.41
2023-09-24T23:10:38.550Z,12.42
2023-09-24T23:13:06.834Z,12.40
2023-09-24T23:15:36.178Z,12.39
2023-09-24T23:18:04.391Z,12.40
2023-09-24T23:20:33.962Z,12.36
2023-09-24T23:23:01.849Z,12.36
2023-09-24T23:25:29.621Z,12.35
2023-09-24T23:27:58.897Z,12.33
2023-09-24T23:30:27.188Z,12.33
2023-09-24T23:32:56.011Z,12.29
2023-09-24T23:35:24.141Z,12.30
2023-09-24T23:37:53.351Z,12.30
2023-09-24T23:40:24.544Z,12.29
2023-09-24T23:42:55.338Z,12.30
2023-09-24T23:45:23.506Z,12.30
2023-09-24T23:47:51.847Z,12.29
2023-09-24T23:50:20.271Z,12.29
2023-09-24T23:52:48.175Z,12.29
2023-09-24T23:55:16.362Z,12.30
2023-09-24T23:57:44.326Z,12.31
